sensor_id;sensor_type;location;lat;lon;timestamp;P1;durP1;ratioP1;P2;durP2;ratioP2
10701;SDS011;5402;50.004;8.246;2023-02-15T00:01:58;38.47;;;15.90;;
10701;SDS011;5402;50.004;8.246;2023-02-15T00:04:25;46.77;;;15.63;;
10701;SDS011;5402;50.004;8.246;2023-02-15T00:07:12;31.80;;;15.03;;
10701;SDS011;5402;50.004;8.246;2023-02-15T00:09:40;42.07;;;15.17;;
10701;SDS011;5402;50.004;8.246;2023-02-15T00:12:08;38.90;;;16.17;;
10701;SDS011;5402;50.004;8.246;2023-02-15T00:14:35;41.23;;;15.10;;
10701;SDS011;5402;50.004;8.246;2023-02-15T00:17:02;37.63;;;14.93;;
10701;SDS011;5402;50.004;8.246;2023-02-15T00:19:29;47.77;;;17.20;;
10701;SDS011;5402;50.004;8.246;2023-02-15T00:21:56;39.90;;;15.57;;
10701;SDS011;5402;50.004;8.246;2023-02-15T00:24:24;42.83;;;16.63;;
10701;SDS011;5402;50.004;8.246;2023-02-15T00:26:52;38.97;;;16.77;;
10701;SDS011;5402;50.004;8.246;2023-02-15T00:29:19;47.93;;;16.83;;
10701;SDS011;5402;50.004;8.246;2023-02-15T00:31:46;34.33;;;14.63;;
10701;SDS011;5402;50.004;8.246;2023-02-15T00:34:14;39.87;;;16.60;;
10701;SDS011;5402;50.004;8.246;2023-02-15T00:36:42;42.20;;;14.70;;
10701;SDS011;5402;50.004;8.246;2023-02-15T00:39:09;42.10;;;16.37;;
10701;SDS011;5402;50.004;8.246;2023-02-15T00:41:38;44.17;;;16.63;;
10701;SDS011;5402;50.004;8.246;2023-02-15T00:44:05;40.87;;;15.97;;
10701;SDS011;5402;50.004;8.246;2023-02-15T00:46:32;45.73;;;16.77;;
10701;SDS011;5402;50.004;8.246;2023-02-15T00:48:59;41.00;;;16.70;;
10701;SDS011;5402;50.004;8.246;2023-02-15T00:51:26;42.77;;;16.13;;
10701;SDS011;5402;50.004;8.246;2023-02-15T00:53:53;45.33;;;16.73;;
10701;SDS011;5402;50.004;8.246;2023-02-15T00:56:20;44.53;;;17.23;;
10701;SDS011;5402;50.004;8.246;2023-02-15T00:58:48;48.70;;;16.93;;
10701;SDS011;5402;50.004;8.246;2023-02-15T01:01:15;43.23;;;17.43;;
10701;SDS011;5402;50.004;8.246;2023-02-15T01:03:44;49.73;;;16.90;;
10701;SDS011;5402;50.004;8.246;2023-02-15T01:06:11;43.53;;;17.33;;
10701;SDS011;5402;50.004;8.246;2023-02-15T01:08:38;46.83;;;17.33;;
10701;SDS011;5402;50.004;8.246;2023-02-15T01:11:05;46.23;;;17.00;;
10701;SDS011;5402;50.004;8.246;2023-02-15T01:13:33;43.87;;;16.27;;
10701;SDS011;5402;50.004;8.246;2023-02-15T01:16:02;44.10;;;16.90;;
10701;SDS011;5402;50.004;8.246;2023-02-15T01:18:30;48.17;;;17.53;;
10701;SDS011;5402;50.004;8.246;2023-02-15T01:20:59;52.27;;;16.80;;
10701;SDS011;5402;50.004;8.246;2023-02-15T01:23:34;44.03;;;15.93;;
10701;SDS011;5402;50.004;8.246;2023-02-15T01:26:01;46.07;;;16.77;;
10701;SDS011;5402;50.004;8.246;2023-02-15T01:28:28;43.27;;;16.60;;
10701;SDS011;5402;50.004;8.246;2023-02-15T01:30:55;48.00;;;17.37;;
10701;SDS011;5402;50.004;8.246;2023-02-15T01:33:23;42.93;;;15.97;;
10701;SDS011;5402;50.004;8.246;2023-02-15T01:35:55;44.47;;;17.03;;
10701;SDS011;5402;50.004;8.246;2023-02-15T01:38:22;41.47;;;15.93;;
10701;SDS011;5402;50.004;8.246;2023-02-15T01:40:50;44.10;;;15.63;;
10701;SDS011;5402;50.004;8.246;2023-02-15T01:43:17;48.50;;;17.20;;
10701;SDS011;5402;50.004;8.246;2023-02-15T01:45:44;46.77;;;16.13;;
10701;SDS011;5402;50.004;8.246;2023-02-15T01:48:16;40.57;;;15.63;;
10701;SDS011;5402;50.004;8.246;2023-02-15T01:50:49;44.27;;;15.77;;
10701;SDS011;5402;50.004;8.246;2023-02-15T01:53:19;41.43;;;15.73;;
10701;SDS011;5402;50.004;8.246;2023-02-15T01:55:52;46.17;;;17.50;;
10701;SDS011;5402;50.004;8.246;2023-02-15T01:58:21;45.07;;;15.57;;
10701;SDS011;5402;50.004;8.246;2023-02-15T02:00:51;48.37;;;17.20;;
10701;SDS011;5402;50.004;8.246;2023-02-15T02:03:18;52.07;;;17.50;;
10701;SDS011;5402;50.004;8.246;2023-02-15T02:05:55;45.07;;;17.40;;
10701;SDS011;5402;50.004;8.246;2023-02-15T02:08:21;42.37;;;15.93;;
10701;SDS011;5402;50.004;8.246;2023-02-15T02:10:48;41.77;;;16.33;;
10701;SDS011;5402;50.004;8.246;2023-02-15T02:13:15;52.83;;;18.30;;
10701;SDS011;5402;50.004;8.246;2023-02-15T02:15:44;49.63;;;16.40;;
10701;SDS011;5402;50.004;8.246;2023-02-15T02:18:22;49.03;;;17.77;;
10701;SDS011;5402;50.004;8.246;2023-02-15T02:21:01;48.63;;;16.37;;
10701;SDS011;5402;50.004;8.246;2023-02-15T02:23:57;45.63;;;16.10;;
10701;SDS011;5402;50.004;8.246;2023-02-15T02:35:30;41.70;;;15.37;;
10701;SDS011;5402;50.004;8.246;2023-02-15T02:38:04;44.47;;;16.40;;
10701;SDS011;5402;50.004;8.246;2023-02-15T02:40:41;40.13;;;15.23;;
10701;SDS011;5402;50.004;8.246;2023-02-15T02:43:16;47.27;;;17.67;;
10701;SDS011;5402;50.004;8.246;2023-02-15T02:45:48;39.33;;;15.80;;
10701;SDS011;5402;50.004;8.246;2023-02-15T02:48:20;49.03;;;16.97;;
10701;SDS011;5402;50.004;8.246;2023-02-15T02:50:51;46.37;;;16.53;;
10701;SDS011;5402;50.004;8.246;2023-02-15T02:53:18;40.20;;;17.47;;
10701;SDS011;5402;50.004;8.246;2023-02-15T02:55:45;48.23;;;17.47;;
10701;SDS011;5402;50.004;8.246;2023-02-15T02:58:15;47.60;;;17.80;;
10701;SDS011;5402;50.004;8.246;2023-02-15T03:00:47;47.17;;;16.60;;
10701;SDS011;5402;50.004;8.246;2023-02-15T03:03:21;45.20;;;16.30;;
10701;SDS011;5402;50.004;8.246;2023-02-15T03:05:52;42.30;;;15.83;;
10701;SDS011;5402;50.004;8.246;2023-02-15T03:08:22;46.83;;;16.27;;
10701;SDS011;5402;50.004;8.246;2023-02-15T03:10:53;47.97;;;18.00;;
10701;SDS011;5402;50.004;8.246;2023-02-15T03:13:22;44.53;;;16.13;;
10701;SDS011;5402;50.004;8.246;2023-02-15T03:15:50;47.80;;;17.20;;
10701;SDS011;5402;50.004;8.246;2023-02-15T03:18:38;43.37;;;15.93;;
10701;SDS011;5402;50.004;8.246;2023-02-15T03:21:08;42.63;;;15.80;;
10701;SDS011;5402;50.004;8.246;2023-02-15T03:23:46;47.57;;;15.97;;
10701;SDS011;5402;50.004;8.246;2023-02-15T03:26:20;45.77;;;16.10;;
10701;SDS011;5402;50.004;8.246;2023-02-15T03:28:48;37.30;;;15.50;;
10701;SDS011;5402;50.004;8.246;2023-02-15T03:31:19;40.27;;;16.67;;
10701;SDS011;5402;50.004;8.246;2023-02-15T03:33:52;43.27;;;15.60;;
10701;SDS011;5402;50.004;8.246;2023-02-15T03:36:22;43.67;;;17.00;;
10701;SDS011;5402;50.004;8.246;2023-02-15T03:38:57;41.70;;;15.87;;
10701;SDS011;5402;50.004;8.246;2023-02-15T03:41:29;43.77;;;16.20;;
10701;SDS011;5402;50.004;8.246;2023-02-15T03:44:04;47.83;;;16.10;;
10701;SDS011;5402;50.004;8.246;2023-02-15T03:46:35;42.03;;;16.83;;
10701;SDS011;5402;50.004;8.246;2023-02-15T03:49:10;40.40;;;16.20;;
10701;SDS011;5402;50.004;8.246;2023-02-15T03:51:42;48.07;;;16.83;;
10701;SDS011;5402;50.004;8.246;2023-02-15T03:54:12;40.97;;;16.60;;
10701;SDS011;5402;50.004;8.246;2023-02-15T03:57:02;46.97;;;16.90;;
10701;SDS011;5402;50.004;8.246;2023-02-15T03:59:50;39.43;;;14.47;;
10701;SDS011;5402;50.004;8.246;2023-02-15T04:02:35;42.93;;;16.67;;
10701;SDS011;5402;50.004;8.246;2023-02-15T04:05:07;42.77;;;16.43;;
10701;SDS011;5402;50.004;8.246;2023-02-15T04:07:34;39.73;;;16.50;;
10701;SDS011;5402;50.004;8.246;2023-02-15T04:10:00;44.53;;;16.77;;
10701;SDS011;5402;50.004;8.246;2023-02-15T04:12:45;53.33;;;18.20;;
10701;SDS011;5402;50.004;8.246;2023-02-15T04:15:11;41.80;;;16.57;;
10701;SDS011;5402;50.004;8.246;2023-02-15T04:17:56;43.90;;;16.90;;
10701;SDS011;5402;50.004;8.246;2023-02-15T04:20:24;46.20;;;17.07;;
10701;SDS011;5402;50.004;8.246;2023-02-15T04:23:08;41.33;;;15.77;;
10701;SDS011;5402;50.004;8.246;2023-02-15T04:25:53;46.50;;;16.47;;
10701;SDS011;5402;50.004;8.246;2023-02-15T04:28:20;41.80;;;17.33;;
10701;SDS011;5402;50.004;8.246;2023-02-15T04:30:47;39.17;;;17.10;;
10701;SDS011;5402;50.004;8.246;2023-02-15T04:33:13;42.30;;;16.30;;
10701;SDS011;5402;50.004;8.246;2023-02-15T04:35:42;46.77;;;17.20;;
10701;SDS011;5402;50.004;8.246;2023-02-15T04:38:10;39.77;;;16.77;;
10701;SDS011;5402;50.004;8.246;2023-02-15T04:40:37;48.17;;;16.87;;
10701;SDS011;5402;50.004;8.246;2023-02-15T04:43:04;46.13;;;16.50;;
10701;SDS011;5402;50.004;8.246;2023-02-15T04:45:30;42.70;;;17.20;;
10701;SDS011;5402;50.004;8.246;2023-02-15T04:47:57;42.07;;;16.23;;
10701;SDS011;5402;50.004;8.246;2023-02-15T04:50:24;39.07;;;16.10;;
10701;SDS011;5402;50.004;8.246;2023-02-15T04:52:52;40.37;;;15.87;;
10701;SDS011;5402;50.004;8.246;2023-02-15T04:55:19;44.57;;;16.53;;
10701;SDS011;5402;50.004;8.246;2023-02-15T04:57:46;43.30;;;16.20;;
10701;SDS011;5402;50.004;8.246;2023-02-15T05:00:12;51.50;;;16.50;;
10701;SDS011;5402;50.004;8.246;2023-02-15T05:02:39;40.60;;;15.97;;
10701;SDS011;5402;50.004;8.246;2023-02-15T05:05:06;42.33;;;16.63;;
10701;SDS011;5402;50.004;8.246;2023-02-15T05:07:34;48.03;;;17.50;;
10701;SDS011;5402;50.004;8.246;2023-02-15T05:10:03;42.27;;;15.90;;
10701;SDS011;5402;50.004;8.246;2023-02-15T05:12:30;40.67;;;15.37;;
10701;SDS011;5402;50.004;8.246;2023-02-15T05:14:56;43.40;;;16.70;;
10701;SDS011;5402;50.004;8.246;2023-02-15T05:17:23;43.43;;;16.70;;
10701;SDS011;5402;50.004;8.246;2023-02-15T05:19:50;37.60;;;15.47;;
10701;SDS011;5402;50.004;8.246;2023-02-15T05:22:16;43.17;;;15.37;;
10701;SDS011;5402;50.004;8.246;2023-02-15T05:24:43;40.23;;;15.63;;
10701;SDS011;5402;50.004;8.246;2023-02-15T05:27:29;42.63;;;16.77;;
10701;SDS011;5402;50.004;8.246;2023-02-15T05:30:13;36.87;;;15.47;;
10701;SDS011;5402;50.004;8.246;2023-02-15T05:32:40;39.03;;;14.67;;
10701;SDS011;5402;50.004;8.246;2023-02-15T05:35:07;37.17;;;15.10;;
10701;SDS011;5402;50.004;8.246;2023-02-15T05:37:34;39.03;;;16.30;;
10701;SDS011;5402;50.004;8.246;2023-02-15T05:40:00;40.30;;;14.30;;
10701;SDS011;5402;50.004;8.246;2023-02-15T05:42:27;36.13;;;14.07;;
10701;SDS011;5402;50.004;8.246;2023-02-15T05:44:55;37.77;;;13.93;;
10701;SDS011;5402;50.004;8.246;2023-02-15T05:47:22;39.17;;;14.50;;
10701;SDS011;5402;50.004;8.246;2023-02-15T05:49:48;39.87;;;14.60;;
10701;SDS011;5402;50.004;8.246;2023-02-15T05:52:15;34.50;;;13.43;;
10701;SDS011;5402;50.004;8.246;2023-02-15T05:54:42;35.97;;;13.80;;
10701;SDS011;5402;50.004;8.246;2023-02-15T05:57:08;36.00;;;14.87;;
10701;SDS011;5402;50.004;8.246;2023-02-15T05:59:35;38.30;;;14.47;;
10701;SDS011;5402;50.004;8.246;2023-02-15T06:02:03;36.33;;;14.07;;
10701;SDS011;5402;50.004;8.246;2023-02-15T06:04:31;29.00;;;13.27;;
10701;SDS011;5402;50.004;8.246;2023-02-15T06:06:58;30.90;;;12.90;;
10701;SDS011;5402;50.004;8.246;2023-02-15T06:09:25;33.13;;;12.73;;
10701;SDS011;5402;50.004;8.246;2023-02-15T06:11:53;32.20;;;12.47;;
10701;SDS011;5402;50.004;8.246;2023-02-15T06:14:20;34.40;;;13.13;;
10701;SDS011;5402;50.004;8.246;2023-02-15T06:16:48;29.37;;;12.73;;
10701;SDS011;5402;50.004;8.246;2023-02-15T06:19:16;28.40;;;12.63;;
10701;SDS011;5402;50.004;8.246;2023-02-15T06:21:42;29.60;;;12.60;;
10701;SDS011;5402;50.004;8.246;2023-02-15T06:24:11;29.17;;;12.53;;
10701;SDS011;5402;50.004;8.246;2023-02-15T06:26:39;27.73;;;11.60;;
10701;SDS011;5402;50.004;8.246;2023-02-15T06:29:05;29.93;;;12.93;;
10701;SDS011;5402;50.004;8.246;2023-02-15T06:31:33;28.97;;;11.67;;
10701;SDS011;5402;50.004;8.246;2023-02-15T06:34:00;28.27;;;12.47;;
10701;SDS011;5402;50.004;8.246;2023-02-15T06:36:28;30.80;;;12.97;;
10701;SDS011;5402;50.004;8.246;2023-02-15T06:38:56;35.43;;;13.00;;
10701;SDS011;5402;50.004;8.246;2023-02-15T06:41:23;26.43;;;12.00;;
10701;SDS011;5402;50.004;8.246;2023-02-15T06:43:50;27.50;;;12.57;;
10701;SDS011;5402;50.004;8.246;2023-02-15T06:46:17;26.20;;;12.03;;
10701;SDS011;5402;50.004;8.246;2023-02-15T06:48:44;27.57;;;11.67;;
10701;SDS011;5402;50.004;8.246;2023-02-15T06:51:11;27.60;;;11.03;;
10701;SDS011;5402;50.004;8.246;2023-02-15T06:53:39;26.97;;;11.37;;
10701;SDS011;5402;50.004;8.246;2023-02-15T06:56:08;26.43;;;11.37;;
10701;SDS011;5402;50.004;8.246;2023-02-15T06:58:36;26.17;;;11.63;;
10701;SDS011;5402;50.004;8.246;2023-02-15T07:01:03;27.20;;;11.83;;
10701;SDS011;5402;50.004;8.246;2023-02-15T07:03:30;25.17;;;10.70;;
10701;SDS011;5402;50.004;8.246;2023-02-15T07:05:58;22.13;;;10.53;;
10701;SDS011;5402;50.004;8.246;2023-02-15T07:08:26;26.27;;;12.60;;
10701;SDS011;5402;50.004;8.246;2023-02-15T07:10:55;24.90;;;11.17;;
10701;SDS011;5402;50.004;8.246;2023-02-15T07:13:43;28.53;;;11.23;;
10701;SDS011;5402;50.004;8.246;2023-02-15T07:16:09;24.33;;;10.23;;
10701;SDS011;5402;50.004;8.246;2023-02-15T07:18:35;21.90;;;10.20;;
10701;SDS011;5402;50.004;8.246;2023-02-15T07:21:02;26.90;;;10.10;;
10701;SDS011;5402;50.004;8.246;2023-02-15T07:23:32;23.80;;;10.23;;
10701;SDS011;5402;50.004;8.246;2023-02-15T07:26:01;25.10;;;10.77;;
10701;SDS011;5402;50.004;8.246;2023-02-15T07:28:28;22.20;;;10.27;;
10701;SDS011;5402;50.004;8.246;2023-02-15T07:30:55;26.17;;;10.77;;
10701;SDS011;5402;50.004;8.246;2023-02-15T07:33:22;26.30;;;10.93;;
10701;SDS011;5402;50.004;8.246;2023-02-15T07:35:49;25.27;;;11.53;;
10701;SDS011;5402;50.004;8.246;2023-02-15T07:38:18;24.33;;;10.90;;
10701;SDS011;5402;50.004;8.246;2023-02-15T07:40:44;24.00;;;10.37;;
10701;SDS011;5402;50.004;8.246;2023-02-15T07:43:15;24.23;;;10.33;;
10701;SDS011;5402;50.004;8.246;2023-02-15T07:45:43;25.97;;;11.83;;
10701;SDS011;5402;50.004;8.246;2023-02-15T07:48:09;24.40;;;10.43;;
10701;SDS011;5402;50.004;8.246;2023-02-15T07:50:36;23.90;;;10.23;;
10701;SDS011;5402;50.004;8.246;2023-02-15T07:53:03;21.00;;;9.77;;
10701;SDS011;5402;50.004;8.246;2023-02-15T07:55:30;20.97;;;9.17;;
10701;SDS011;5402;50.004;8.246;2023-02-15T07:57:57;22.37;;;8.97;;
10701;SDS011;5402;50.004;8.246;2023-02-15T08:00:25;21.60;;;8.93;;
10701;SDS011;5402;50.004;8.246;2023-02-15T08:02:53;26.27;;;9.60;;
10701;SDS011;5402;50.004;8.246;2023-02-15T08:05:39;18.07;;;7.87;;
10701;SDS011;5402;50.004;8.246;2023-02-15T08:08:07;19.30;;;9.60;;
10701;SDS011;5402;50.004;8.246;2023-02-15T08:10:56;21.23;;;9.33;;
10701;SDS011;5402;50.004;8.246;2023-02-15T08:13:43;21.97;;;10.13;;
10701;SDS011;5402;50.004;8.246;2023-02-15T08:16:19;22.77;;;9.00;;
10701;SDS011;5402;50.004;8.246;2023-02-15T08:18:48;17.60;;;8.53;;
10701;SDS011;5402;50.004;8.246;2023-02-15T08:21:15;18.80;;;8.93;;
10701;SDS011;5402;50.004;8.246;2023-02-15T08:23:41;20.77;;;9.30;;
10701;SDS011;5402;50.004;8.246;2023-02-15T08:26:09;20.40;;;8.60;;
10701;SDS011;5402;50.004;8.246;2023-02-15T08:28:36;19.77;;;8.87;;
10701;SDS011;5402;50.004;8.246;2023-02-15T08:31:06;19.00;;;8.43;;
10701;SDS011;5402;50.004;8.246;2023-02-15T08:33:34;23.30;;;8.77;;
10701;SDS011;5402;50.004;8.246;2023-02-15T08:36:02;43.87;;;10.73;;
10701;SDS011;5402;50.004;8.246;2023-02-15T08:38:30;19.43;;;8.70;;
10701;SDS011;5402;50.004;8.246;2023-02-15T08:40:57;29.30;;;10.50;;
10701;SDS011;5402;50.004;8.246;2023-02-15T08:43:24;20.13;;;8.87;;
10701;SDS011;5402;50.004;8.246;2023-02-15T08:45:50;18.83;;;9.30;;
10701;SDS011;5402;50.004;8.246;2023-02-15T08:48:17;25.13;;;9.57;;
10701;SDS011;5402;50.004;8.246;2023-02-15T08:50:45;19.00;;;8.83;;
10701;SDS011;5402;50.004;8.246;2023-02-15T08:53:12;20.20;;;9.30;;
10701;SDS011;5402;50.004;8.246;2023-02-15T08:55:38;18.40;;;9.20;;
10701;SDS011;5402;50.004;8.246;2023-02-15T08:58:05;22.17;;;9.87;;
10701;SDS011;5402;50.004;8.246;2023-02-15T09:00:32;22.70;;;10.00;;
10701;SDS011;5402;50.004;8.246;2023-02-15T09:02:59;25.23;;;10.60;;
10701;SDS011;5402;50.004;8.246;2023-02-15T09:05:26;22.80;;;9.70;;
10701;SDS011;5402;50.004;8.246;2023-02-15T09:07:54;22.30;;;8.97;;
10701;SDS011;5402;50.004;8.246;2023-02-15T09:10:20;21.03;;;9.17;;
10701;SDS011;5402;50.004;8.246;2023-02-15T09:12:47;21.63;;;8.67;;
10701;SDS011;5402;50.004;8.246;2023-02-15T09:15:15;24.87;;;9.83;;
10701;SDS011;5402;50.004;8.246;2023-02-15T09:17:41;29.60;;;10.00;;
10701;SDS011;5402;50.004;8.246;2023-02-15T09:20:09;22.87;;;9.47;;
10701;SDS011;5402;50.004;8.246;2023-02-15T09:22:36;19.63;;;8.47;;
10701;SDS011;5402;50.004;8.246;2023-02-15T09:25:04;19.43;;;9.03;;
10701;SDS011;5402;50.004;8.246;2023-02-15T09:27:34;23.47;;;10.47;;
10701;SDS011;5402;50.004;8.246;2023-02-15T09:30:01;23.23;;;9.40;;
10701;SDS011;5402;50.004;8.246;2023-02-15T09:32:28;21.17;;;10.47;;
10701;SDS011;5402;50.004;8.246;2023-02-15T09:34:55;22.93;;;11.67;;
10701;SDS011;5402;50.004;8.246;2023-02-15T09:37:21;19.47;;;10.10;;
10701;SDS011;5402;50.004;8.246;2023-02-15T09:39:48;18.37;;;8.93;;
10701;SDS011;5402;50.004;8.246;2023-02-15T09:42:27;24.10;;;11.23;;
10701;SDS011;5402;50.004;8.246;2023-02-15T09:45:16;21.23;;;11.13;;
10701;SDS011;5402;50.004;8.246;2023-02-15T09:48:02;28.17;;;10.73;;
10701;SDS011;5402;50.004;8.246;2023-02-15T09:50:47;26.40;;;10.17;;
10701;SDS011;5402;50.004;8.246;2023-02-15T09:53:28;23.37;;;10.97;;
10701;SDS011;5402;50.004;8.246;2023-02-15T09:56:05;25.43;;;10.63;;
10701;SDS011;5402;50.004;8.246;2023-02-15T09:58:40;23.20;;;9.93;;
10701;SDS011;5402;50.004;8.246;2023-02-15T10:01:16;22.17;;;11.10;;
10701;SDS011;5402;50.004;8.246;2023-02-15T10:03:56;23.47;;;11.17;;
10701;SDS011;5402;50.004;8.246;2023-02-15T10:06:36;23.90;;;10.43;;
10701;SDS011;5402;50.004;8.246;2023-02-15T10:12:02;25.67;;;11.77;;
10701;SDS011;5402;50.004;8.246;2023-02-15T10:14:51;24.40;;;11.10;;
10701;SDS011;5402;50.004;8.246;2023-02-15T10:17:40;27.87;;;11.23;;
10701;SDS011;5402;50.004;8.246;2023-02-15T10:20:22;21.33;;;9.73;;
10701;SDS011;5402;50.004;8.246;2023-02-15T10:22:59;23.30;;;10.07;;
10701;SDS011;5402;50.004;8.246;2023-02-15T10:25:41;20.50;;;9.70;;
10701;SDS011;5402;50.004;8.246;2023-02-15T10:28:15;20.47;;;10.23;;
10701;SDS011;5402;50.004;8.246;2023-02-15T10:30:47;17.63;;;9.70;;
10701;SDS011;5402;50.004;8.246;2023-02-15T10:33:27;22.20;;;9.47;;
10701;SDS011;5402;50.004;8.246;2023-02-15T10:36:06;23.20;;;10.80;;
10701;SDS011;5402;50.004;8.246;2023-02-15T10:38:42;20.67;;;10.47;;
10701;SDS011;5402;50.004;8.246;2023-02-15T10:41:22;20.67;;;10.23;;
10701;SDS011;5402;50.004;8.246;2023-02-15T10:43:58;24.13;;;10.63;;
10701;SDS011;5402;50.004;8.246;2023-02-15T10:46:48;21.70;;;10.20;;
10701;SDS011;5402;50.004;8.246;2023-02-15T10:49:32;20.57;;;10.03;;
10701;SDS011;5402;50.004;8.246;2023-02-15T10:52:15;23.30;;;10.80;;
10701;SDS011;5402;50.004;8.246;2023-02-15T10:54:54;19.37;;;9.57;;
10701;SDS011;5402;50.004;8.246;2023-02-15T10:57:30;27.30;;;14.17;;
10701;SDS011;5402;50.004;8.246;2023-02-15T11:00:05;35.93;;;17.93;;
10701;SDS011;5402;50.004;8.246;2023-02-15T11:05:29;22.37;;;11.20;;
10701;SDS011;5402;50.004;8.246;2023-02-15T11:08:07;24.80;;;11.27;;
10701;SDS011;5402;50.004;8.246;2023-02-15T11:10:37;22.10;;;10.83;;
10701;SDS011;5402;50.004;8.246;2023-02-15T11:13:09;28.50;;;10.97;;
10701;SDS011;5402;50.004;8.246;2023-02-15T11:15:40;23.23;;;10.27;;
10701;SDS011;5402;50.004;8.246;2023-02-15T11:18:13;20.33;;;10.03;;
10701;SDS011;5402;50.004;8.246;2023-02-15T11:20:47;16.57;;;9.50;;
10701;SDS011;5402;50.004;8.246;2023-02-15T11:23:18;22.23;;;10.03;;
10701;SDS011;5402;50.004;8.246;2023-02-15T11:25:47;24.33;;;10.63;;
10701;SDS011;5402;50.004;8.246;2023-02-15T11:28:22;20.57;;;10.10;;
10701;SDS011;5402;50.004;8.246;2023-02-15T11:30:53;26.37;;;10.80;;
10701;SDS011;5402;50.004;8.246;2023-02-15T11:33:25;27.23;;;10.97;;
10701;SDS011;5402;50.004;8.246;2023-02-15T11:35:59;24.23;;;10.93;;
10701;SDS011;5402;50.004;8.246;2023-02-15T11:38:31;69.50;;;14.67;;
10701;SDS011;5402;50.004;8.246;2023-02-15T11:40:59;22.47;;;11.90;;
10701;SDS011;5402;50.004;8.246;2023-02-15T11:43:31;36.83;;;11.43;;
10701;SDS011;5402;50.004;8.246;2023-02-15T11:46:02;23.03;;;11.03;;
10701;SDS011;5402;50.004;8.246;2023-02-15T11:48:31;27.03;;;10.70;;
10701;SDS011;5402;50.004;8.246;2023-02-15T11:50:58;20.70;;;10.63;;
10701;SDS011;5402;50.004;8.246;2023-02-15T11:53:26;26.60;;;12.80;;
10701;SDS011;5402;50.004;8.246;2023-02-15T11:55:57;22.03;;;11.13;;
10701;SDS011;5402;50.004;8.246;2023-02-15T11:58:28;22.30;;;10.63;;
10701;SDS011;5402;50.004;8.246;2023-02-15T12:01:00;19.73;;;10.20;;
10701;SDS011;5402;50.004;8.246;2023-02-15T12:03:39;25.27;;;11.53;;
10701;SDS011;5402;50.004;8.246;2023-02-15T12:06:17;19.63;;;10.13;;
10701;SDS011;5402;50.004;8.246;2023-02-15T12:08:51;25.47;;;11.47;;
10701;SDS011;5402;50.004;8.246;2023-02-15T12:11:25;21.57;;;10.37;;
10701;SDS011;5402;50.004;8.246;2023-02-15T12:13:58;21.33;;;11.80;;
10701;SDS011;5402;50.004;8.246;2023-02-15T12:16:26;18.83;;;10.37;;
10701;SDS011;5402;50.004;8.246;2023-02-15T12:18:56;21.80;;;11.07;;
10701;SDS011;5402;50.004;8.246;2023-02-15T12:21:25;20.60;;;11.13;;
10701;SDS011;5402;50.004;8.246;2023-02-15T12:23:56;21.93;;;11.30;;
10701;SDS011;5402;50.004;8.246;2023-02-15T12:26:26;17.47;;;9.93;;
10701;SDS011;5402;50.004;8.246;2023-02-15T12:28:55;16.67;;;9.40;;
10701;SDS011;5402;50.004;8.246;2023-02-15T12:31:27;23.50;;;10.67;;
10701;SDS011;5402;50.004;8.246;2023-02-15T12:33:59;20.10;;;10.60;;
10701;SDS011;5402;50.004;8.246;2023-02-15T12:36:29;18.03;;;9.97;;
10701;SDS011;5402;50.004;8.246;2023-02-15T12:39:02;17.23;;;9.27;;
10701;SDS011;5402;50.004;8.246;2023-02-15T12:41:31;18.20;;;10.03;;
10701;SDS011;5402;50.004;8.246;2023-02-15T12:44:05;18.23;;;9.50;;
10701;SDS011;5402;50.004;8.246;2023-02-15T12:46:33;20.73;;;9.83;;
10701;SDS011;5402;50.004;8.246;2023-02-15T12:49:12;16.60;;;9.50;;
10701;SDS011;5402;50.004;8.246;2023-02-15T12:51:44;18.93;;;10.60;;
10701;SDS011;5402;50.004;8.246;2023-02-15T12:54:32;23.60;;;11.00;;
10701;SDS011;5402;50.004;8.246;2023-02-15T12:57:13;20.07;;;10.30;;
10701;SDS011;5402;50.004;8.246;2023-02-15T12:59:49;20.97;;;11.33;;
10701;SDS011;5402;50.004;8.246;2023-02-15T13:02:19;20.63;;;10.73;;
10701;SDS011;5402;50.004;8.246;2023-02-15T13:04:56;20.33;;;10.33;;
10701;SDS011;5402;50.004;8.246;2023-02-15T13:07:30;16.70;;;9.97;;
10701;SDS011;5402;50.004;8.246;2023-02-15T13:09:58;19.67;;;10.53;;
10701;SDS011;5402;50.004;8.246;2023-02-15T13:12:25;20.47;;;10.90;;
10701;SDS011;5402;50.004;8.246;2023-02-15T13:14:55;18.60;;;9.90;;
10701;SDS011;5402;50.004;8.246;2023-02-15T13:17:24;20.03;;;10.27;;
10701;SDS011;5402;50.004;8.246;2023-02-15T13:19:54;19.93;;;11.10;;
10701;SDS011;5402;50.004;8.246;2023-02-15T13:22:32;19.47;;;10.80;;
10701;SDS011;5402;50.004;8.246;2023-02-15T13:25:04;53.20;;;19.77;;
10701;SDS011;5402;50.004;8.246;2023-02-15T13:27:39;40.27;;;17.33;;
10701;SDS011;5402;50.004;8.246;2023-02-15T13:30:16;20.23;;;10.87;;
10701;SDS011;5402;50.004;8.246;2023-02-15T13:32:51;18.90;;;10.67;;
10701;SDS011;5402;50.004;8.246;2023-02-15T13:35:22;20.80;;;11.47;;
10701;SDS011;5402;50.004;8.246;2023-02-15T13:38:06;15.87;;;10.03;;
10701;SDS011;5402;50.004;8.246;2023-02-15T13:40:44;19.00;;;10.53;;
10701;SDS011;5402;50.004;8.246;2023-02-15T13:43:29;19.83;;;10.73;;
10701;SDS011;5402;50.004;8.246;2023-02-15T13:46:08;22.17;;;12.57;;
10701;SDS011;5402;50.004;8.246;2023-02-15T13:48:46;17.80;;;9.47;;
10701;SDS011;5402;50.004;8.246;2023-02-15T13:51:24;20.03;;;11.50;;
10701;SDS011;5402;50.004;8.246;2023-02-15T13:54:02;22.43;;;11.47;;
10701;SDS011;5402;50.004;8.246;2023-02-15T13:56:51;18.10;;;10.83;;
10701;SDS011;5402;50.004;8.246;2023-02-15T13:59:29;22.50;;;11.07;;
10701;SDS011;5402;50.004;8.246;2023-02-15T14:02:15;23.40;;;12.03;;
10701;SDS011;5402;50.004;8.246;2023-02-15T14:05:05;19.47;;;10.23;;
10701;SDS011;5402;50.004;8.246;2023-02-15T14:07:57;19.33;;;10.37;;
10701;SDS011;5402;50.004;8.246;2023-02-15T14:13:29;19.33;;;10.87;;
10701;SDS011;5402;50.004;8.246;2023-02-15T14:16:17;19.10;;;10.00;;
10701;SDS011;5402;50.004;8.246;2023-02-15T14:18:54;21.67;;;11.60;;
10701;SDS011;5402;50.004;8.246;2023-02-15T14:21:27;20.33;;;12.00;;
10701;SDS011;5402;50.004;8.246;2023-02-15T14:24:09;22.10;;;11.50;;
10701;SDS011;5402;50.004;8.246;2023-02-15T14:26:50;18.77;;;11.63;;
10701;SDS011;5402;50.004;8.246;2023-02-15T14:29:27;22.73;;;11.93;;
10701;SDS011;5402;50.004;8.246;2023-02-15T14:32:04;22.83;;;12.03;;
10701;SDS011;5402;50.004;8.246;2023-02-15T14:34:38;23.53;;;13.00;;
10701;SDS011;5402;50.004;8.246;2023-02-15T14:37:12;20.70;;;11.50;;
10701;SDS011;5402;50.004;8.246;2023-02-15T14:39:47;26.87;;;13.17;;
10701;SDS011;5402;50.004;8.246;2023-02-15T14:42:40;24.20;;;12.63;;
10701;SDS011;5402;50.004;8.246;2023-02-15T14:45:17;28.57;;;12.90;;
10701;SDS011;5402;50.004;8.246;2023-02-15T14:47:48;23.87;;;12.77;;
10701;SDS011;5402;50.004;8.246;2023-02-15T14:50:36;21.00;;;12.70;;
10701;SDS011;5402;50.004;8.246;2023-02-15T14:53:15;23.17;;;12.37;;
10701;SDS011;5402;50.004;8.246;2023-02-15T14:56:12;22.67;;;12.67;;
10701;SDS011;5402;50.004;8.246;2023-02-15T14:58:58;28.70;;;13.83;;
10701;SDS011;5402;50.004;8.246;2023-02-15T15:01:40;27.40;;;13.27;;
10701;SDS011;5402;50.004;8.246;2023-02-15T15:04:09;25.87;;;12.73;;
10701;SDS011;5402;50.004;8.246;2023-02-15T15:06:39;25.70;;;13.07;;
10701;SDS011;5402;50.004;8.246;2023-02-15T15:09:11;24.10;;;13.17;;
10701;SDS011;5402;50.004;8.246;2023-02-15T15:11:46;25.43;;;13.67;;
10701;SDS011;5402;50.004;8.246;2023-02-15T15:17:04;24.87;;;12.93;;
10701;SDS011;5402;50.004;8.246;2023-02-15T15:22:30;40.00;;;14.97;;
10701;SDS011;5402;50.004;8.246;2023-02-15T15:24:58;30.80;;;14.27;;
10701;SDS011;5402;50.004;8.246;2023-02-15T15:27:40;26.20;;;14.20;;